Fortuneswell, United Kingdom
Current Conditions -  °F | °C
As of 5:20 PM on Tuesday 21 Oct 2014 (Local Time) from EGHH Reporting Station
Scattered Clouds Scattered Clouds  
Wind Chill:   Ceiling: Unl
Heat Index:   Visibility: 6mi
Dew Point:   Wind: 13mph
Humidity: 82%   Direction: 310°NW
Pressure: 30"   Gusts: NA
Location:  50.56°N, 2.44°W
Report Text: EGHH 211620Z 31011KT 9999 FEW035 SCT049CB 09/06 Q1016 RESHRA
Loading
Personal Weather Stations






























Interactive Weather Map
Tropical Storm Tracking
New forecast layout! Learn more

10-Day Weather Forecast

Advertisements
Track Severe Weather on mobile